Time;durP1;ratioP1;P1;durP2;ratioP2;P2;SDS_P1;SDS_P2;PMS_P1;PMS_P2;Temp;Humidity;BMP_temperature;BMP_pressure;BME280_temperature;BME280_humidity;BME280_pressure;Samples;Min_cycle;Max_cycle;Signal;HPM_P1;HPM_P2
2022/04/23 00:00:38;;;;;;;14.80;10.60;;;;;;;12.70;64.30;98642.94;4386524;32;32625;-86
2022/04/23 00:03:15;;;;;;;15.57;11.43;;;;;;;12.73;64.36;98647.94;4385536;32;31892;-86
2022/04/23 00:05:48;;;;;;;16.93;10.70;;;;;;;12.61;64.95;98649.94;4410892;32;33678;-86
2022/04/23 00:08:24;;;;;;;13.98;9.98;;;;;;;12.68;65.28;98648.69;4409981;32;34405;-85
2022/04/23 00:10:58;;;;;;;15.63;10.88;;;;;;;12.37;65.47;98652.78;4385764;32;32257;-85
2022/04/23 00:13:32;;;;;;;15.20;10.32;;;;;;;12.65;64.42;98646.44;4410572;32;32084;-84
2022/04/23 00:16:04;;;;;;;15.00;10.88;;;;;;;12.81;64.10;98647.53;4397774;32;33301;-85
2022/04/23 00:18:39;;;;;;;14.55;10.45;;;;;;;12.80;64.17;98652.22;4410366;32;33897;-85
2022/04/23 00:21:15;;;;;;;15.88;10.43;;;;;;;12.82;64.46;98655.56;4398210;32;33719;-85
2022/04/23 00:23:50;;;;;;;14.77;10.55;;;;;;;12.68;65.15;98661.63;4397239;32;32510;-85
2022/04/23 00:26:26;;;;;;;15.73;11.00;;;;;;;12.68;65.17;98654.19;4385765;32;32192;-85
2022/04/23 00:29:00;;;;;;;15.00;10.98;;;;;;;12.78;64.65;98653.53;4410523;32;35205;-85
2022/04/23 00:31:33;;;;;;;17.45;10.95;;;;;;;12.80;64.75;98660.47;4408582;32;34094;-85
2022/04/23 00:34:04;;;;;;;16.58;10.55;;;;;;;12.46;65.40;98659.56;4410512;32;33585;-85
2022/04/23 00:36:34;;;;;;;15.60;10.70;;;;;;;12.67;64.77;98651.69;4409940;32;33552;-85
2022/04/23 00:39:06;;;;;;;16.02;10.93;;;;;;;12.82;64.22;98660.22;4397625;32;35040;-85
2022/04/23 00:41:48;;;;;;;17.17;12.00;;;;;;;12.79;64.48;98656.06;4410630;32;33904;-86
2022/04/23 00:44:23;;;;;;;14.87;10.70;;;;;;;12.76;64.80;98658.47;4387232;32;31651;-84
2022/04/23 00:46:54;;;;;;;16.98;12.20;;;;;;;12.76;64.88;98658.47;4397412;32;32214;-84
2022/04/23 00:49:25;;;;;;;17.27;11.12;;;;;;;12.74;65.10;98658.72;4385121;32;33149;-85
2022/04/23 00:51:59;;;;;;;16.37;11.45;;;;;;;12.83;64.64;98665.47;4410593;32;34021;-84
2022/04/23 00:54:33;;;;;;;16.42;11.52;;;;;;;12.92;64.48;98673.34;4410157;32;31894;-84
2022/04/23 00:57:07;;;;;;;15.38;11.27;;;;;;;12.71;64.97;98667.47;4398045;32;32284;-85
2022/04/23 00:59:40;;;;;;;15.60;11.75;;;;;;;12.76;64.77;98662.06;4410078;32;35310;-85
2022/04/23 01:02:15;;;;;;;15.40;10.75;;;;;;;12.65;65.35;98668.47;4397791;32;33777;-86
2022/04/23 01:04:51;;;;;;;14.30;10.45;;;;;;;12.79;65.07;98668.97;4385606;32;31725;-84
2022/04/23 01:07:23;;;;;;;15.07;10.82;;;;;;;12.81;65.01;98673.16;4398296;32;33672;-84
2022/04/23 01:09:55;;;;;;;18.65;11.25;;;;;;;12.78;65.25;98670.91;4410662;32;34342;-85
2022/04/23 01:12:25;;;;;;;16.85;11.40;;;;;;;12.73;65.75;98664.47;4410222;32;33657;-84
2022/04/23 01:15:03;;;;;;;17.40;12.05;;;;;;;12.78;65.38;98667.31;4410682;32;33286;-85
2022/04/23 01:17:37;;;;;;;17.60;11.68;;;;;;;12.88;65.06;98669.41;4410179;32;34056;-85
2022/04/23 01:20:14;;;;;;;14.85;10.75;;;;;;;12.73;65.57;98664.47;4397463;32;33756;-87
2022/04/23 01:22:45;;;;;;;14.57;11.00;;;;;;;12.89;65.43;98668.34;4385448;32;32536;-87
2022/04/23 01:25:22;;;;;;;16.65;11.05;;;;;;;12.77;65.70;98666.47;4397900;32;32593;-86
2022/04/23 01:27:53;;;;;;;20.77;11.95;;;;;;;12.84;65.41;98667.16;4410097;32;33814;-85
2022/04/23 01:30:27;;;;;;;15.52;11.07;;;;;;;12.70;65.88;98673.22;4409742;32;35306;-87
2022/04/23 01:33:01;;;;;;;15.07;10.82;;;;;;;12.95;65.24;98667.34;4410189;32;34585;-86
2022/04/23 01:35:33;;;;;;;17.12;12.05;;;;;;;12.78;65.85;98665.41;4397495;32;31898;-86
2022/04/23 01:38:06;;;;;;;18.65;12.13;;;;;;;12.72;65.79;98668.31;4409968;32;34635;-86
2022/04/23 01:40:38;;;;;;;16.52;11.40;;;;;;;12.70;65.98;98664.97;4410558;32;35257;-86
2022/04/23 01:43:08;;;;;;;19.73;11.70;;;;;;;12.64;66.00;98674.22;4410040;32;34794;-87
2022/04/23 01:45:48;;;;;;;16.05;12.20;;;;;;;12.82;65.39;98674.81;4410373;32;34068;-87
2022/04/23 01:48:21;;;;;;;16.00;11.32;;;;;;;12.85;65.18;98671.56;4398353;32;32243;-85
2022/04/23 01:50:55;;;;;;;16.50;12.13;;;;;;;12.60;65.95;98679.38;4416250;32;34773;-85
2022/04/23 01:53:29;;;;;;;17.52;11.70;;;;;;;12.63;65.84;98676.13;4402856;32;33613;-85
2022/04/23 01:55:59;;;;;;;18.85;11.77;;;;;;;12.38;66.94;98679.22;4417902;32;34804;-84
2022/04/23 01:58:30;;;;;;;16.73;11.57;;;;;;;12.39;66.78;98675.37;4419119;32;34048;-85
2022/04/23 02:01:02;;;;;;;17.52;13.02;;;;;;;12.65;65.98;98678.62;4406258;32;33413;-85
2022/04/23 02:03:37;;;;;;;17.42;12.32;;;;;;;12.59;66.33;98685.97;4405998;32;32145;-84
2022/04/23 02:06:10;;;;;;;18.58;13.10;;;;;;;12.52;66.53;98680.59;4401984;32;33759;-85
2022/04/23 02:08:46;;;;;;;19.00;13.60;;;;;;;12.54;66.74;98683.09;4413501;32;33924;-85
2022/04/23 02:11:21;;;;;;;20.10;13.48;;;;;;;12.31;67.55;98678.56;4411274;32;34650;-85
2022/04/23 02:13:51;;;;;;;19.87;13.75;;;;;;;12.11;68.02;98681.72;4397769;32;34084;-86
2022/04/23 02:16:26;;;;;;;21.73;14.75;;;;;;;12.40;67.15;98681.72;4397112;32;31613;-85
2022/04/23 02:19:01;;;;;;;20.00;13.45;;;;;;;12.43;67.25;98684.81;4409168;32;34494;-85
2022/04/23 02:21:38;;;;;;;19.42;14.43;;;;;;;12.25;67.80;98687.78;4409537;32;35461;-85
2022/04/23 02:24:12;;;;;;;20.75;15.07;;;;;;;12.24;67.81;98677.03;4397535;32;32500;-86
2022/04/23 02:26:49;;;;;;;20.35;14.68;;;;;;;11.83;69.23;98688.00;4396851;32;31884;-86
2022/04/23 02:29:23;;;;;;;18.55;13.23;;;;;;;12.17;68.13;98689.00;4409520;32;33860;-85
2022/04/23 02:32:19;;;;;;;19.87;14.75;;;;;;;12.32;67.75;98684.91;4396810;32;32789;-86
2022/04/23 02:34:50;;;;;;;20.15;13.60;;;;;;;12.36;67.27;98686.06;4409062;32;32295;-85
2022/04/23 02:37:23;;;;;;;20.10;14.85;;;;;;;12.34;67.53;98694.56;4397203;32;32961;-85
2022/04/23 02:39:54;;;;;;;20.08;14.48;;;;;;;12.45;67.17;98692.84;4408985;32;31773;-86
2022/04/23 02:42:29;;;;;;;19.62;14.43;;;;;;;12.44;67.13;98692.00;4396912;32;35411;-85
2022/04/23 02:45:05;;;;;;;20.60;13.95;;;;;;;12.38;67.25;98692.16;4397021;32;34452;-85
2022/04/23 02:47:51;;;;;;;20.00;13.90;;;;;;;12.30;67.12;98693.41;4407031;32;33232;-84
2022/04/23 02:50:30;;;;;;;20.95;14.77;;;;;;;11.92;68.62;98693.97;4409486;32;33620;-85
2022/04/23 02:52:59;;;;;;;;;;;;;;;12.27;67.36;98688.38;4409291;32;35364;-85
2022/04/23 02:55:28;;;;;;;21.00;14.63;;;;;;;12.06;67.90;98700.88;4421422;32;33554;-87
2022/04/23 02:58:02;;;;;;;19.77;14.87;;;;;;;12.25;67.59;98697.97;4408692;32;33986;-85
2022/04/23 03:00:40;;;;;;;19.05;13.90;;;;;;;12.18;67.73;98693.44;4408805;32;32223;-87
2022/04/23 03:03:17;;;;;;;20.27;14.02;;;;;;;12.44;66.78;98700.25;4408678;32;32925;-86
2022/04/23 03:05:51;;;;;;;20.80;13.93;;;;;;;12.40;66.97;98695.50;4396895;32;34231;-85
2022/04/23 03:08:25;;;;;;;21.37;14.10;;;;;;;12.46;66.76;98703.59;4409285;32;33481;-85
2022/04/23 03:10:59;;;;;;;20.67;13.98;;;;;;;12.48;66.75;98697.84;4397149;32;31948;-85
2022/04/23 03:13:27;;;;;;;19.62;14.32;;;;;;;12.44;66.84;98691.16;4395877;32;33118;-82
2022/04/23 03:15:56;;;;;;;20.85;14.73;;;;;;;12.43;66.94;98690.31;4395491;32;32595;-86
2022/04/23 03:18:29;;;;;;;20.33;14.63;;;;;;;12.49;66.72;98694.00;4408582;32;32190;-86
2022/04/23 03:21:06;;;;;;;23.62;14.40;;;;;;;12.48;66.85;98697.84;4409687;32;34480;-84
2022/04/23 03:23:37;;;;;;;;;;;;;;;12.58;66.42;98698.03;4397205;32;35418;-85
2022/04/23 03:26:11;;;;;;;20.27;13.70;;;;;;;12.44;67.08;98702.16;4421688;32;34178;-86
2022/04/23 03:28:39;;;;;;;20.35;13.50;;;;;;;12.60;66.46;98701.38;4395875;32;31627;-86
2022/04/23 03:31:09;;;;;;;20.45;13.77;;;;;;;12.47;66.54;98702.53;4395840;32;33110;-86
2022/04/23 03:33:37;;;;;;;22.10;14.15;;;;;;;12.50;66.53;98709.44;4409218;32;35289;-86
2022/04/23 03:36:05;;;;;;;19.73;13.73;;;;;;;12.59;66.28;98707.13;4410772;32;34162;-86
2022/04/23 03:38:36;;;;;;;17.33;13.23;;;;;;;12.58;66.17;98717.31;4410653;32;32913;-85
2022/04/23 03:41:07;;;;;;;21.67;14.63;;;;;;;12.54;66.37;98711.47;4410690;32;32260;-90
2022/04/23 03:43:37;;;;;;;22.40;14.65;;;;;;;12.48;66.73;98722.63;4398194;32;33949;-90
2022/04/23 03:46:06;;;;;;;19.77;13.98;;;;;;;12.61;66.32;98727.00;4410793;32;34116;-89
2022/04/23 03:48:34;;;;;;;19.12;14.05;;;;;;;12.50;66.67;98725.97;4398245;32;32989;-91
2022/04/23 03:51:04;;;;;;;21.33;14.63;;;;;;;12.60;66.39;98723.41;4410623;32;33495;-89
2022/04/23 03:53:34;;;;;;;18.20;13.40;;;;;;;12.53;66.42;98726.31;4410636;32;34374;-90
2022/04/23 03:56:02;;;;;;;19.48;14.20;;;;;;;12.49;66.35;98729.78;4411195;32;33986;-89
2022/04/23 03:58:33;;;;;;;20.67;14.40;;;;;;;12.36;67.03;98730.91;4399439;32;33722;-89
2022/04/23 04:01:03;;;;;;;21.80;14.07;;;;;;;12.32;67.10;98732.50;4411430;32;33500;-90
2022/04/23 04:03:34;;;;;;;18.55;13.40;;;;;;;12.44;66.87;98732.44;4411244;32;35157;-89
2022/04/23 04:06:20;;;;;;;21.27;14.27;;;;;;;12.36;67.20;98738.31;4411424;32;34272;-91
2022/04/23 04:08:50;;;;;;;19.00;13.43;;;;;;;12.42;67.21;98742.84;4410524;32;31654;-94
2022/04/23 04:11:19;;;;;;;17.55;13.40;;;;;;;12.40;67.21;98742.25;4411140;32;33218;-91
2022/04/23 04:13:47;;;;;;;20.88;14.40;;;;;;;12.53;66.86;98739.22;4398219;32;34270;-93
2022/04/23 04:16:17;;;;;;;20.37;13.73;;;;;;;12.38;67.31;98741.66;4424557;32;34077;-91
2022/04/23 04:18:45;;;;;;;20.30;13.48;;;;;;;12.47;67.13;98734.72;4397831;32;32874;-90
2022/04/23 04:21:14;;;;;;;18.37;13.15;;;;;;;12.58;66.55;98738.50;4398221;32;32669;-91
2022/04/23 04:23:44;;;;;;;19.98;14.30;;;;;;;12.56;66.71;98744.25;4399118;32;32863;-91
2022/04/23 04:26:16;;;;;;;18.98;13.55;;;;;;;12.51;66.70;98746.91;4411175;32;34176;-91
2022/04/23 04:28:44;;;;;;;20.60;12.98;;;;;;;12.44;66.82;98754.47;4411920;32;34286;-89
2022/04/23 04:33:59;;;;;;;17.95;13.18;;;;;;;12.40;67.09;98750.53;4413251;32;34104;-91
2022/04/23 04:36:30;;;;;;;20.37;13.30;;;;;;;12.53;66.76;98758.50;4398950;32;32599;-91
2022/04/23 04:38:57;;;;;;;18.73;13.43;;;;;;;12.51;66.75;98755.16;4398330;32;33122;-92
2022/04/23 04:41:31;;;;;;;18.70;13.20;;;;;;;12.63;66.40;98755.94;4398937;32;33069;-90
2022/04/23 04:44:00;;;;;;;18.40;12.85;;;;;;;12.60;66.66;98753.69;4411376;32;33530;-91
2022/04/23 04:46:31;;;;;;;22.15;13.30;;;;;;;12.71;66.39;98754.72;4386072;32;33419;-93
2022/04/23 04:49:00;;;;;;;17.08;12.60;;;;;;;12.74;66.27;98749.56;4398353;32;33293;-91
2022/04/23 04:51:30;;;;;;;17.33;11.88;;;;;;;12.60;66.78;98753.69;4411261;32;33951;-91
2022/04/23 04:53:57;;;;;;;18.60;12.85;;;;;;;12.59;66.85;98753.94;4398309;32;33754;-90
2022/04/23 04:56:25;;;;;;;17.05;12.48;;;;;;;12.58;66.99;98757.75;4399065;32;32374;-91
2022/04/23 05:01:17;;;;;;;;;;;;;;;12.85;66.45;98756.09;4424815;26;2844699;-75
2022/04/23 05:03:51;;;;;;;16.95;12.10;;;;;;;12.80;66.49;98751.34;4497236;32;33902;-75
2022/04/23 05:06:25;;;;;;;15.82;11.90;;;;;;;12.72;66.66;98762.75;4469380;32;33615;-76
2022/04/23 05:08:53;;;;;;;15.68;11.50;;;;;;;12.66;67.14;98757.38;4497566;32;35219;-76
2022/04/23 05:11:29;;;;;;;17.12;11.73;;;;;;;12.88;66.58;98757.53;4497586;32;34498;-74
2022/04/23 05:13:57;;;;;;;15.75;11.63;;;;;;;12.89;66.73;98751.78;4497667;32;33322;-75
2022/04/23 05:16:28;;;;;;;17.40;12.10;;;;;;;13.06;66.23;98760.06;4483660;32;33694;-75
2022/04/23 05:18:56;;;;;;;19.08;12.70;;;;;;;13.09;66.34;98756.81;4497479;31;35205;-76
2022/04/23 05:21:24;;;;;;;17.50;11.73;;;;;;;12.88;67.18;98760.28;4497526;31;33446;-75
2022/04/23 05:23:56;;;;;;;15.80;12.10;;;;;;;12.95;67.26;98769.22;4497842;32;33577;-75
2022/04/23 05:26:24;;;;;;;15.68;12.05;;;;;;;12.96;67.24;98776.41;4497704;31;34529;-75
2022/04/23 05:28:52;;;;;;;15.82;12.27;;;;;;;13.05;66.83;98777.66;4496009;31;34405;-75
2022/04/23 05:31:23;;;;;;;17.20;12.45;;;;;;;13.09;66.41;98778.84;4497321;32;33707;-72
2022/04/23 05:33:55;;;;;;;16.67;11.27;;;;;;;13.15;66.12;98778.69;4497489;32;33309;-75
2022/04/23 05:36:26;;;;;;;16.75;11.57;;;;;;;13.32;66.31;98775.97;4497254;31;33743;-75
2022/04/23 05:38:56;;;;;;;15.38;11.35;;;;;;;13.33;65.88;98782.34;4497184;32;34387;-75
2022/04/23 05:41:27;;;;;;;17.48;12.55;;;;;;;13.14;66.34;98784.44;4483444;32;33790;-75
2022/04/23 05:43:59;;;;;;;15.65;11.18;;;;;;;13.35;65.76;98788.44;4497356;32;33402;-75
2022/04/23 05:46:28;;;;;;;15.60;11.40;;;;;;;13.19;66.30;98784.56;4497414;31;32945;-75
2022/04/23 05:49:03;;;;;;;15.07;11.18;;;;;;;13.40;65.78;98786.59;4497424;32;34480;-75
2022/04/23 05:51:36;;;;;;;18.70;11.82;;;;;;;13.47;65.76;98791.94;4482452;32;34563;-75
2022/04/23 05:54:04;;;;;;;16.35;11.60;;;;;;;13.44;66.06;98785.03;4470073;32;32707;-75
2022/04/23 05:56:32;;;;;;;17.42;12.45;;;;;;;13.53;66.04;98793.72;4497334;32;34640;-76
2022/04/23 05:59:02;;;;;;;16.60;11.60;;;;;;;13.80;65.56;98793.84;4496389;32;34198;-74
2022/04/23 06:01:34;;;;;;;15.85;11.45;;;;;;;13.87;65.87;98797.28;4481000;32;33743;-75
2022/04/23 06:04:05;;;;;;;18.60;11.27;;;;;;;13.85;66.04;98799.44;4496895;32;34179;-75
2022/04/23 06:06:32;;;;;;;15.73;11.48;;;;;;;14.10;65.09;98802.59;4497339;32;33641;-75
2022/04/23 06:09:03;;;;;;;15.32;11.15;;;;;;;14.29;64.56;98805.06;4480903;32;33452;-74
2022/04/23 06:11:34;;;;;;;15.77;12.68;;;;;;;14.22;64.67;98805.25;4488997;32;33606;-75
2022/04/23 06:14:18;;;;;;;19.08;12.88;;;;;;;14.48;64.51;98809.22;4484948;32;34002;-75
2022/04/23 06:17:12;;;;;;;20.35;14.32;;;;;;;14.52;64.33;98812.28;4483524;32;33690;-75
2022/04/23 06:20:03;;;;;;;18.40;11.93;;;;;;;14.76;63.45;98810.97;4484835;32;34408;-75
2022/04/23 06:22:55;;;;;;;15.02;11.52;;;;;;;14.75;62.60;98815.66;4484392;32;34755;-75
2022/04/23 06:25:37;;;;;;;16.23;11.63;;;;;;;14.80;62.89;98815.72;4486893;32;34011;-75
2022/04/23 06:28:25;;;;;;;14.75;10.15;;;;;;;14.90;62.72;98819.69;4472728;32;32991;-75
2022/04/23 06:31:17;;;;;;;16.52;11.05;;;;;;;15.00;62.26;98836.38;4486583;32;34179;-75
2022/04/23 06:34:08;;;;;;;14.98;10.52;;;;;;;15.00;61.91;98833.59;4486373;32;34406;-75
2022/04/23 06:36:52;;;;;;;14.38;10.73;;;;;;;15.08;61.38;98833.13;4486423;32;34216;-75
2022/04/23 06:39:33;;;;;;;13.35;9.95;;;;;;;15.01;60.49;98843.56;4485304;32;34437;-75
2022/04/23 06:42:18;;;;;;;15.18;10.20;;;;;;;15.09;59.81;98852.22;4485499;32;34429;-75
2022/04/23 06:45:03;;;;;;;9.30;5.82;;;;;;;14.98;60.15;98852.38;4486399;32;32798;-76
2022/04/23 06:47:52;;;;;;;14.48;10.20;;;;;;;15.19;61.47;98845.97;4486359;32;33142;-78
2022/04/23 06:50:24;;;;;;;13.77;9.52;;;;;;;15.32;59.86;98845.56;4472927;32;33995;-77
2022/04/23 06:52:54;;;;;;;14.07;10.55;;;;;;;15.40;59.33;98845.13;4483913;32;34559;-76
2022/04/23 06:55:22;;;;;;;14.45;9.23;;;;;;;15.36;59.14;98848.66;4469087;32;33880;-76
2022/04/23 06:57:52;;;;;;;18.92;12.40;;;;;;;15.20;59.74;98864.25;4470639;32;32967;-76
2022/04/23 07:00:22;;;;;;;15.15;10.85;;;;;;;14.42;61.38;98866.28;4470405;32;34409;-76
2022/04/23 07:02:50;;;;;;;14.93;10.23;;;;;;;14.71;61.11;98861.44;4470372;32;34302;-76
2022/04/23 07:05:22;;;;;;;13.80;10.25;;;;;;;14.96;60.84;98858.16;4456753;32;33792;-76
2022/04/23 07:08:01;;;;;;;12.80;9.50;;;;;;;14.77;61.43;98870.63;4469443;32;33402;-77
2022/04/23 07:10:40;;;;;;;12.88;8.88;;;;;;;14.73;60.51;98875.84;4469619;32;34477;-77
2022/04/23 07:13:11;;;;;;;13.05;9.85;;;;;;;14.77;60.99;98879.75;4469413;32;34462;-76
2022/04/23 07:15:46;;;;;;;12.90;8.60;;;;;;;14.67;60.87;98876.84;4456771;32;33980;-76
2022/04/23 07:18:14;;;;;;;15.20;10.20;;;;;;;14.73;60.59;98883.28;4470619;32;33247;-77
2022/04/23 07:21:01;;;;;;;14.32;10.13;;;;;;;14.94;59.94;98887.16;4470685;32;33799;-76
2022/04/23 07:24:08;;;;;;;12.20;9.15;;;;;;;14.56;60.23;98888.84;4456415;32;34162;-77
2022/04/23 07:26:50;;;;;;;;;;;;;;;14.79;59.84;98883.09;4471189;32;34515;-76
2022/04/23 07:29:49;;;;;;;12.63;8.75;;;;;;;14.97;60.98;98887.44;4469696;32;32910;-76
2022/04/23 07:32:42;;;;;;;13.35;9.27;;;;;;;15.05;61.09;98887.00;4470665;32;34288;-76
2022/04/23 07:38:26;;;;;;;12.90;9.45;;;;;;;15.21;60.32;98898.25;4460819;32;32277;-76
2022/04/23 07:41:11;;;;;;;11.85;8.68;;;;;;;15.16;60.06;98899.00;4470218;32;33840;-75
2022/04/23 07:44:01;;;;;;;12.30;9.27;;;;;;;15.06;60.04;98901.66;4470245;32;33946;-76
2022/04/23 07:46:52;;;;;;;11.02;8.32;;;;;;;15.18;59.43;98894.06;4457270;32;35222;-76
2022/04/23 07:49:38;;;;;;;11.98;8.68;;;;;;;15.13;60.23;98907.81;4455961;32;33379;-76
2022/04/23 07:52:32;;;;;;;10.25;7.90;;;;;;;15.20;60.17;98894.66;4457649;32;33335;-78
2022/04/23 07:55:02;;;;;;;10.65;8.27;;;;;;;15.28;59.65;98905.25;4470169;32;34643;-76
2022/04/23 07:57:30;;;;;;;13.10;9.43;;;;;;;15.13;59.85;98911.41;4470328;32;34442;-76
2022/04/23 08:00:17;;;;;;;20.90;12.57;;;;;;;15.04;60.07;98914.88;4470016;32;33588;-76
2022/04/23 08:03:02;;;;;;;13.25;8.60;;;;;;;15.01;61.04;98921.75;4455788;32;31734;-76
2022/04/23 08:05:57;;;;;;;21.45;13.27;;;;;;;15.41;59.99;98915.06;4469922;32;34757;-76
2022/04/23 08:08:48;;;;;;;17.77;12.45;;;;;;;14.88;60.30;98924.09;4457556;32;34501;-75
2022/04/23 08:11:40;;;;;;;19.12;12.88;;;;;;;15.18;60.02;98930.00;4470097;32;33858;-76
2022/04/23 08:14:29;;;;;;;19.45;11.88;;;;;;;15.36;59.35;98926.91;4469922;32;34121;-76
2022/04/23 08:17:18;;;;;;;16.75;11.52;;;;;;;15.29;59.67;98920.75;4469668;32;33637;-75
2022/04/23 08:20:07;;;;;;;13.88;11.15;;;;;;;14.77;60.18;98923.12;4443352;32;34926;-76
2022/04/23 08:22:55;;;;;;;22.73;13.55;;;;;;;14.89;60.21;98929.38;4469853;32;34710;-76
2022/04/23 08:25:35;;;;;;;27.67;17.60;;;;;;;15.11;60.06;98924.66;4456866;32;33269;-75
2022/04/23 08:31:21;;;;;;;27.17;17.92;;;;;;;15.48;59.70;98930.38;4469966;32;34372;-76
2022/04/23 08:34:05;;;;;;;16.12;12.37;;;;;;;15.67;59.24;98939.16;4471129;31;34090;-76
2022/04/23 08:37:00;;;;;;;17.33;13.35;;;;;;;15.88;58.90;98928.31;4465443;31;33141;-75
2022/04/23 08:39:49;;;;;;;16.58;12.10;;;;;;;15.95;59.32;98924.22;4452955;32;32476;-75
2022/04/23 08:42:39;;;;;;;16.35;12.73;;;;;;;16.20;58.57;98923.63;4473745;31;35361;-75
2022/04/23 08:45:25;;;;;;;17.92;13.07;;;;;;;16.52;58.57;98923.56;4476897;31;33995;-76
2022/04/23 08:48:18;;;;;;;16.05;11.57;;;;;;;16.64;57.91;98920.59;4491318;31;33389;-75
2022/04/23 08:51:11;;;;;;;15.25;11.55;;;;;;;16.66;55.61;98924.81;4470251;31;33617;-76
2022/04/23 08:54:08;;;;;;;16.37;11.12;;;;;;;16.88;54.96;98927.44;4485191;32;34343;-76
2022/04/23 08:56:54;;;;;;;15.40;11.27;;;;;;;17.01;54.62;98926.94;4472444;32;33598;-76
2022/04/23 08:59:42;;;;;;;15.10;11.23;;;;;;;16.94;55.05;98926.34;4471850;32;33257;-76
2022/04/23 09:02:35;;;;;;;15.40;10.73;;;;;;;17.18;54.73;98937.81;4485013;32;34612;-76
2022/04/23 09:05:24;;;;;;;18.62;11.18;;;;;;;17.01;54.19;98942.72;4471601;32;35212;-74
2022/04/23 09:08:13;;;;;;;13.88;9.45;;;;;;;16.95;53.60;98944.63;4471153;32;34219;-75
2022/04/23 09:11:06;;;;;;;11.05;6.80;;;;;;;16.83;53.21;98951.50;4459080;32;31778;-74
2022/04/23 09:13:50;;;;;;;13.93;9.27;;;;;;;16.80;54.97;98950.09;4485381;32;33705;-75
2022/04/23 09:25:57;;;;;;;13.88;10.18;;;;;;;16.93;53.40;98963.47;4484913;32;33775;-75
2022/04/23 09:28:33;;;;;;;19.40;13.10;;;;;;;17.01;53.38;98959.34;4470699;32;35266;-75
2022/04/23 09:31:12;;;;;;;13.75;11.02;;;;;;;17.03;52.98;98962.69;4471034;32;34432;-75
2022/04/23 09:33:54;;;;;;;15.45;11.27;;;;;;;16.70;53.57;98964.72;4470518;32;31883;-75
2022/04/23 09:36:22;;;;;;;15.35;11.25;;;;;;;16.60;54.01;98967.41;4484936;32;34153;-75
2022/04/23 09:39:01;;;;;;;15.85;12.13;;;;;;;16.65;54.59;98967.47;4470785;32;34101;-76
2022/04/23 09:41:34;;;;;;;16.00;12.18;;;;;;;16.54;55.26;98970.38;4469242;32;33688;-75
2022/04/23 09:44:07;;;;;;;16.35;11.32;;;;;;;16.27;55.63;98967.66;4470608;32;33237;-75
2022/04/23 09:46:56;;;;;;;21.50;12.50;;;;;;;16.06;56.30;98970.28;4471297;32;33227;-75
2022/04/23 09:49:33;;;;;;;16.33;12.68;;;;;;;16.09;56.17;98975.28;4473673;32;34354;-75
2022/04/23 09:52:11;;;;;;;19.95;12.70;;;;;;;15.98;56.52;98962.44;4459771;32;32275;-75
2022/04/23 09:54:39;;;;;;;18.42;12.98;;;;;;;16.12;56.00;98974.75;4486761;32;33530;-75
2022/04/23 09:57:12;;;;;;;15.75;11.82;;;;;;;15.94;56.89;98972.37;4459691;32;32183;-75
2022/04/23 09:59:43;;;;;;;15.10;11.75;;;;;;;15.82;57.08;98979.97;4473201;32;34330;-74
2022/04/23 10:02:18;;;;;;;16.87;12.07;;;;;;;15.78;57.82;98978.84;4472536;32;33857;-75
2022/04/23 10:04:52;;;;;;;16.77;11.80;;;;;;;15.78;57.15;98989.91;4486764;32;34211;-76
2022/04/23 10:07:24;;;;;;;16.67;10.77;;;;;;;15.75;56.88;98982.13;4472393;32;33630;-75
2022/04/23 10:09:57;;;;;;;14.23;10.93;;;;;;;15.73;57.36;98976.00;4472776;32;34277;-75
2022/04/23 10:12:26;;;;;;;15.40;11.02;;;;;;;15.73;56.78;98987.91;4472537;32;34125;-75
2022/04/23 10:14:59;;;;;;;14.98;10.85;;;;;;;15.65;57.29;98995.84;4472711;32;33435;-76
2022/04/23 10:17:31;;;;;;;16.37;10.77;;;;;;;15.79;56.71;98994.34;4472587;32;33708;-76
2022/04/23 10:20:04;;;;;;;23.02;15.77;;;;;;;15.75;56.56;98996.78;4472682;32;35344;-76
2022/04/23 10:22:44;;;;;;;17.15;11.57;;;;;;;15.89;56.08;99005.53;4474877;31;33884;-76
2022/04/23 10:25:41;;;;;;;11.90;8.43;;;;;;;15.88;55.86;99006.62;4465048;31;33300;-75
2022/04/23 10:28:09;;;;;;;25.83;16.73;;;;;;;15.88;55.92;98995.53;4464001;32;34527;-75
2022/04/23 10:30:39;;;;;;;14.23;10.73;;;;;;;15.90;55.48;98998.88;4461083;32;34617;-76
2022/04/23 10:33:26;;;;;;;16.05;10.38;;;;;;;15.95;55.62;98998.09;4456461;32;32512;-75
2022/04/23 10:36:13;;;;;;;16.65;10.05;;;;;;;15.90;55.98;98992.53;4456966;32;33348;-76
2022/04/23 10:38:44;;;;;;;15.80;10.15;;;;;;;15.82;56.41;99004.88;4456755;32;34503;-75
2022/04/23 10:41:15;;;;;;;16.45;11.77;;;;;;;15.82;56.62;98991.88;4458408;31;32964;-75
2022/04/23 10:43:53;;;;;;;18.62;10.68;;;;;;;15.84;56.78;98990.78;4477486;31;33812;-76
2022/04/23 10:46:42;;;;;;;12.57;10.00;;;;;;;15.91;56.81;98997.78;4460189;32;32353;-76
2022/04/23 10:49:23;;;;;;;16.80;11.48;;;;;;;15.97;55.58;98998.69;4471000;32;34148;-75
2022/04/23 10:51:56;;;;;;;14.63;10.63;;;;;;;15.99;55.97;99008.41;4456663;32;35117;-76
2022/04/23 10:54:39;;;;;;;17.85;11.50;;;;;;;15.96;56.44;99014.44;4456584;32;33251;-77
2022/04/23 10:57:08;;;;;;;16.62;11.27;;;;;;;16.02;56.16;99013.41;4470842;32;33931;-76
2022/04/23 10:59:49;;;;;;;13.52;10.13;;;;;;;16.08;56.38;99017.91;4443953;32;34470;-75
2022/04/23 11:02:24;;;;;;;16.58;9.65;;;;;;;16.06;56.32;99025.63;4446847;31;34470;-76
2022/04/23 11:13:35;;;;;;;13.18;9.55;;;;;;;16.46;54.17;99014.09;4489822;31;34387;-75
2022/04/23 11:16:08;;;;;;;13.50;9.93;;;;;;;16.58;54.35;99016.69;4487446;31;34804;-76
2022/04/23 11:18:39;;;;;;;15.60;10.25;;;;;;;16.34;53.93;99015.38;4502110;31;34168;-76
2022/04/23 11:21:09;;;;;;;12.65;8.80;;;;;;;16.60;54.35;99013.66;4474656;31;33247;-76
2022/04/23 11:23:39;;;;;;;16.75;10.13;;;;;;;16.66;55.37;99007.09;4487679;31;34543;-75
2022/04/23 11:26:12;;;;;;;12.70;9.18;;;;;;;16.73;54.89;99014.06;4487746;31;33927;-76
2022/04/23 11:28:41;;;;;;;14.50;9.55;;;;;;;16.90;54.43;99016.66;4487864;31;33123;-76
2022/04/23 11:31:13;;;;;;;14.18;9.77;;;;;;;16.74;55.10;99021.28;4471613;31;32198;-75
2022/04/23 11:33:57;;;;;;;12.55;8.75;;;;;;;16.84;55.30;99019.69;4458871;32;33397;-76
2022/04/23 11:36:42;;;;;;;18.15;8.98;;;;;;;16.96;54.43;99017.53;4467081;32;33825;-76
2022/04/23 11:39:33;;;;;;;20.20;10.00;;;;;;;16.83;53.34;99024.41;4463040;32;32716;-75
2022/04/23 11:42:22;;;;;;;14.10;9.38;;;;;;;16.77;52.36;99017.16;4478077;32;34547;-75
2022/04/23 11:45:12;;;;;;;16.48;10.93;;;;;;;16.86;52.80;99023.03;4464070;32;34916;-76
2022/04/23 11:48:02;;;;;;;21.98;11.77;;;;;;;16.82;52.59;99021.91;4457484;32;32477;-76
2022/04/23 11:50:52;;;;;;;24.00;12.10;;;;;;;16.95;52.61;99027.78;4477109;32;34560;-75
2022/04/23 11:53:57;;;;;;;14.50;9.88;;;;;;;16.86;53.26;99028.59;4465807;32;33740;-76
2022/04/23 11:56:59;;;;;;;14.48;10.43;;;;;;;17.01;53.87;99028.66;4468328;32;34187;-75
2022/04/23 12:00:02;;;;;;;14.73;9.80;;;;;;;17.02;54.62;99035.88;4465102;32;33781;-76
2022/04/23 12:02:45;;;;;;;25.25;17.80;;;;;;;17.13;54.78;99020.97;4462635;32;32545;-75
2022/04/23 12:05:32;;;;;;;25.00;16.30;;;;;;;17.09;55.11;99022.62;4460339;32;33863;-75
2022/04/23 12:08:29;;;;;;;21.83;13.93;;;;;;;17.18;53.97;99021.00;4455084;32;33069;-76
2022/04/23 12:11:41;;;;;;;17.12;13.15;;;;;;;17.20;54.27;99024.34;4478120;32;34517;-76
2022/04/23 12:22:03;;;;;;;13.38;9.52;;;;;;;18.02;51.16;99009.72;4381678;32;34448;-76
2022/04/23 12:25:09;;;;;;;14.07;9.38;;;;;;;18.66;50.42;99002.87;4389870;32;34900;-76
2022/04/23 12:42:03;;;;;;;15.75;10.95;;;;;;;19.34;44.45;98983.81;4478061;32;34623;-76
2022/04/23 12:44:43;;;;;;;19.52;10.88;;;;;;;19.42;44.79;98986.84;4477175;32;35385;-76
2022/04/23 12:47:13;;;;;;;19.58;10.88;;;;;;;19.30;44.75;98991.06;4477147;32;34832;-76
2022/04/23 12:49:47;;;;;;;11.05;8.07;;;;;;;19.26;45.68;98987.19;4461192;32;33206;-76
2022/04/23 12:52:25;;;;;;;11.55;7.87;;;;;;;19.04;46.15;98991.12;4476157;32;33498;-76
2022/04/23 12:55:16;;;;;;;11.98;8.45;;;;;;;19.32;45.04;98995.22;4476386;32;34105;-77